Terminal Aerodrome Forecast
Issued by NWS Duluth, MN

Home | Current Version | Previous Version | Text Only | Print | Product List | Glossary On
Versions: 1 2 3 4 5 6 7 8 9 10 11 12 13
472
FTUS43 KDLH 300533
TAFINL
TAF
KINL 300533Z 3006/0106 08006KT P6SM SKC
     FM301500 08010KT P6SM FEW040
     FM301800 07012G20KT P6SM FEW050
     FM010200 06008KT P6SM SKC=

USA.gov is the U.S. government's official web portal to all federal, state and local government web resources and services.